sensor_id;sensor_type;location;lat;lon;timestamp;pressure;altitude;pressure_sealevel;temperature;humidity
63097;BME280;49185;42.320;23.198;2023-12-07T00:00:26;94503.41;;;2.59;100.00
63097;BME280;49185;42.320;23.198;2023-12-07T00:02:52;94506.44;;;2.56;100.00
63097;BME280;49185;42.320;23.198;2023-12-07T00:05:17;94500.59;;;2.54;100.00
63097;BME280;49185;42.320;23.198;2023-12-07T00:07:42;94508.47;;;2.54;100.00
63097;BME280;49185;42.320;23.198;2023-12-07T00:10:08;94506.63;;;2.55;100.00
63097;BME280;49185;42.320;23.198;2023-12-07T00:12:34;94504.44;;;2.52;100.00
63097;BME280;49185;42.320;23.198;2023-12-07T00:14:59;94515.75;;;2.52;100.00
63097;BME280;49185;42.320;23.198;2023-12-07T00:17:24;94506.25;;;2.58;100.00
63097;BME280;49185;42.320;23.198;2023-12-07T00:19:50;94511.47;;;2.71;100.00
63097;BME280;49185;42.320;23.198;2023-12-07T00:22:16;94517.34;;;2.80;100.00
63097;BME280;49185;42.320;23.198;2023-12-07T00:24:41;94520.94;;;2.92;100.00
63097;BME280;49185;42.320;23.198;2023-12-07T00:27:06;94519.53;;;2.90;100.00
63097;BME280;49185;42.320;23.198;2023-12-07T00:29:32;94509.81;;;2.90;100.00
63097;BME280;49185;42.320;23.198;2023-12-07T00:31:57;94506.56;;;2.95;100.00
63097;BME280;49185;42.320;23.198;2023-12-07T00:34:22;94506.78;;;2.93;100.00
63097;BME280;49185;42.320;23.198;2023-12-07T00:36:48;94510.25;;;2.80;100.00
63097;BME280;49185;42.320;23.198;2023-12-07T00:39:13;94506.59;;;2.81;100.00
63097;BME280;49185;42.320;23.198;2023-12-07T00:41:39;94507.63;;;2.74;100.00
63097;BME280;49185;42.320;23.198;2023-12-07T00:44:04;94516.75;;;2.71;100.00
63097;BME280;49185;42.320;23.198;2023-12-07T00:46:29;94518.34;;;2.79;100.00
63097;BME280;49185;42.320;23.198;2023-12-07T00:48:55;94510.66;;;2.71;100.00
63097;BME280;49185;42.320;23.198;2023-12-07T00:51:20;94522.59;;;2.66;100.00
63097;BME280;49185;42.320;23.198;2023-12-07T00:53:46;94518.34;;;2.65;100.00
63097;BME280;49185;42.320;23.198;2023-12-07T00:56:11;94520.56;;;2.69;100.00
63097;BME280;49185;42.320;23.198;2023-12-07T00:58:37;94518.75;;;2.69;100.00
63097;BME280;49185;42.320;23.198;2023-12-07T01:01:02;94520.16;;;2.65;100.00
63097;BME280;49185;42.320;23.198;2023-12-07T01:03:28;94523.78;;;2.71;100.00
63097;BME280;49185;42.320;23.198;2023-12-07T01:05:53;94524.38;;;2.79;100.00
63097;BME280;49185;42.320;23.198;2023-12-07T01:08:18;94519.91;;;2.87;100.00
63097;BME280;49185;42.320;23.198;2023-12-07T01:10:44;94515.47;;;2.94;100.00
63097;BME280;49185;42.320;23.198;2023-12-07T01:13:09;94509.41;;;2.93;100.00
63097;BME280;49185;42.320;23.198;2023-12-07T01:15:34;94511.25;;;2.86;100.00
63097;BME280;49185;42.320;23.198;2023-12-07T01:18:00;94504.00;;;2.75;100.00
63097;BME280;49185;42.320;23.198;2023-12-07T01:20:25;94505.41;;;2.71;100.00
63097;BME280;49185;42.320;23.198;2023-12-07T01:22:51;94501.19;;;2.70;100.00
63097;BME280;49185;42.320;23.198;2023-12-07T01:25:16;94501.59;;;2.66;100.00
63097;BME280;49185;42.320;23.198;2023-12-07T01:27:41;94496.72;;;2.70;100.00
63097;BME280;49185;42.320;23.198;2023-12-07T01:30:07;94490.28;;;2.66;100.00
63097;BME280;49185;42.320;23.198;2023-12-07T01:32:33;94495.34;;;2.61;100.00
63097;BME280;49185;42.320;23.198;2023-12-07T01:34:58;94483.44;;;2.52;100.00
63097;BME280;49185;42.320;23.198;2023-12-07T01:37:23;94483.25;;;2.46;100.00
63097;BME280;49185;42.320;23.198;2023-12-07T01:39:49;94484.03;;;2.40;100.00
63097;BME280;49185;42.320;23.198;2023-12-07T01:42:14;94486.50;;;2.28;100.00
63097;BME280;49185;42.320;23.198;2023-12-07T01:44:39;94479.00;;;2.25;100.00
63097;BME280;49185;42.320;23.198;2023-12-07T01:47:05;94482.63;;;2.24;100.00
63097;BME280;49185;42.320;23.198;2023-12-07T01:49:32;94481.03;;;2.17;100.00
63097;BME280;49185;42.320;23.198;2023-12-07T01:51:57;94484.66;;;2.22;100.00
63097;BME280;49185;42.320;23.198;2023-12-07T01:54:23;94487.09;;;2.04;100.00
63097;BME280;49185;42.320;23.198;2023-12-07T01:56:50;94488.69;;;1.92;100.00
63097;BME280;49185;42.320;23.198;2023-12-07T01:59:16;94488.88;;;1.77;100.00
63097;BME280;49185;42.320;23.198;2023-12-07T02:01:43;94479.97;;;1.64;100.00
63097;BME280;49185;42.320;23.198;2023-12-07T02:04:09;94494.31;;;1.82;100.00
63097;BME280;49185;42.320;23.198;2023-12-07T02:06:35;94500.16;;;1.84;100.00
63097;BME280;49185;42.320;23.198;2023-12-07T02:09:00;94491.91;;;1.80;100.00
63097;BME280;49185;42.320;23.198;2023-12-07T02:11:25;94489.69;;;1.70;100.00
63097;BME280;49185;42.320;23.198;2023-12-07T02:13:51;94483.63;;;1.63;100.00
63097;BME280;49185;42.320;23.198;2023-12-07T02:16:29;94479.56;;;1.54;100.00
63097;BME280;49185;42.320;23.198;2023-12-07T02:21:59;94497.31;;;1.59;100.00
63097;BME280;49185;42.320;23.198;2023-12-07T02:24:31;94486.22;;;1.57;100.00
63097;BME280;49185;42.320;23.198;2023-12-07T02:26:58;94485.19;;;1.44;100.00
63097;BME280;49185;42.320;23.198;2023-12-07T02:29:23;94480.31;;;1.41;100.00
63097;BME280;49185;42.320;23.198;2023-12-07T02:31:49;94478.31;;;1.43;100.00
63097;BME280;49185;42.320;23.198;2023-12-07T02:34:14;94476.09;;;1.40;100.00
63097;BME280;49185;42.320;23.198;2023-12-07T02:36:43;94479.72;;;1.39;100.00
63097;BME280;49185;42.320;23.198;2023-12-07T02:39:10;94479.56;;;1.47;100.00
63097;BME280;49185;42.320;23.198;2023-12-07T02:41:37;94478.09;;;1.31;100.00
63097;BME280;49185;42.320;23.198;2023-12-07T02:44:05;94472.19;;;1.16;100.00
63097;BME280;49185;42.320;23.198;2023-12-07T02:46:30;94477.59;;;1.08;100.00
63097;BME280;49185;42.320;23.198;2023-12-07T02:48:57;94468.91;;;1.01;100.00
63097;BME280;49185;42.320;23.198;2023-12-07T02:51:22;94472.75;;;1.05;100.00
63097;BME280;49185;42.320;23.198;2023-12-07T02:53:48;94469.53;;;1.09;100.00
63097;BME280;49185;42.320;23.198;2023-12-07T02:56:13;94480.09;;;1.29;100.00
63097;BME280;49185;42.320;23.198;2023-12-07T02:58:38;94475.44;;;1.25;100.00
63097;BME280;49185;42.320;23.198;2023-12-07T03:01:04;94473.41;;;1.20;100.00
63097;BME280;49185;42.320;23.198;2023-12-07T03:03:29;94476.25;;;1.25;100.00
63097;BME280;49185;42.320;23.198;2023-12-07T03:05:54;94475.06;;;1.28;100.00
63097;BME280;49185;42.320;23.198;2023-12-07T03:08:20;94476.28;;;1.32;100.00
63097;BME280;49185;42.320;23.198;2023-12-07T03:10:45;94472.25;;;1.36;100.00
63097;BME280;49185;42.320;23.198;2023-12-07T03:13:10;94468.44;;;1.39;100.00
63097;BME280;49185;42.320;23.198;2023-12-07T03:15:36;94464.00;;;1.39;100.00
63097;BME280;49185;42.320;23.198;2023-12-07T03:18:01;94464.38;;;1.36;100.00
63097;BME280;49185;42.320;23.198;2023-12-07T03:20:27;94467.22;;;1.41;100.00
63097;BME280;49185;42.320;23.198;2023-12-07T03:22:52;94474.03;;;1.29;100.00
63097;BME280;49185;42.320;23.198;2023-12-07T03:25:17;94473.22;;;1.22;100.00
63097;BME280;49185;42.320;23.198;2023-12-07T03:27:43;94469.19;;;1.19;100.00
63097;BME280;49185;42.320;23.198;2023-12-07T03:30:09;94479.22;;;1.09;100.00
63097;BME280;49185;42.320;23.198;2023-12-07T03:32:34;94474.78;;;1.09;100.00
63097;BME280;49185;42.320;23.198;2023-12-07T03:34:59;94473.00;;;1.17;100.00
63097;BME280;49185;42.320;23.198;2023-12-07T03:37:25;94483.88;;;1.13;100.00
63097;BME280;49185;42.320;23.198;2023-12-07T03:39:50;94479.06;;;1.17;100.00
63097;BME280;49185;42.320;23.198;2023-12-07T03:42:16;94481.25;;;1.20;100.00
63097;BME280;49185;42.320;23.198;2023-12-07T03:44:41;94490.19;;;1.26;100.00
63097;BME280;49185;42.320;23.198;2023-12-07T03:47:07;94488.38;;;1.33;100.00
63097;BME280;49185;42.320;23.198;2023-12-07T03:49:32;94478.91;;;1.32;100.00
63097;BME280;49185;42.320;23.198;2023-12-07T03:51:58;94473.03;;;1.30;100.00
63097;BME280;49185;42.320;23.198;2023-12-07T03:54:23;94480.31;;;1.28;100.00
63097;BME280;49185;42.320;23.198;2023-12-07T03:56:48;94469.41;;;1.31;100.00
63097;BME280;49185;42.320;23.198;2023-12-07T03:59:14;94470.44;;;1.37;100.00
63097;BME280;49185;42.320;23.198;2023-12-07T04:01:39;94474.84;;;1.23;100.00
63097;BME280;49185;42.320;23.198;2023-12-07T04:04:05;94471.41;;;1.16;100.00
63097;BME280;49185;42.320;23.198;2023-12-07T04:06:30;94465.94;;;1.10;100.00
63097;BME280;49185;42.320;23.198;2023-12-07T04:08:55;94470.75;;;1.07;100.00
63097;BME280;49185;42.320;23.198;2023-12-07T04:11:21;94468.72;;;1.02;100.00
63097;BME280;49185;42.320;23.198;2023-12-07T04:13:47;94471.72;;;0.99;100.00
63097;BME280;49185;42.320;23.198;2023-12-07T04:16:12;94470.72;;;1.00;100.00
63097;BME280;49185;42.320;23.198;2023-12-07T04:18:37;94467.31;;;1.00;100.00
63097;BME280;49185;42.320;23.198;2023-12-07T04:21:03;94479.16;;;0.95;100.00
63097;BME280;49185;42.320;23.198;2023-12-07T04:23:29;94476.13;;;0.92;100.00
63097;BME280;49185;42.320;23.198;2023-12-07T04:25:54;94478.16;;;0.97;100.00
63097;BME280;49185;42.320;23.198;2023-12-07T04:28:20;94480.97;;;0.95;100.00
63097;BME280;49185;42.320;23.198;2023-12-07T04:30:45;94480.16;;;0.94;100.00
63097;BME280;49185;42.320;23.198;2023-12-07T04:33:11;94487.22;;;0.94;100.00
63097;BME280;49185;42.320;23.198;2023-12-07T04:35:36;94491.25;;;0.97;100.00
63097;BME280;49185;42.320;23.198;2023-12-07T04:38:02;94496.69;;;0.95;100.00
63097;BME280;49185;42.320;23.198;2023-12-07T04:40:27;94491.44;;;0.95;100.00
63097;BME280;49185;42.320;23.198;2023-12-07T04:42:53;94488.22;;;0.93;100.00
63097;BME280;49185;42.320;23.198;2023-12-07T04:45:19;94493.22;;;0.88;100.00
63097;BME280;49185;42.320;23.198;2023-12-07T04:47:44;94496.75;;;1.15;100.00
63097;BME280;49185;42.320;23.198;2023-12-07T04:50:10;94503.19;;;1.06;100.00
63097;BME280;49185;42.320;23.198;2023-12-07T04:52:35;94509.41;;;0.98;100.00
63097;BME280;49185;42.320;23.198;2023-12-07T04:55:01;94509.97;;;0.93;100.00
63097;BME280;49185;42.320;23.198;2023-12-07T04:57:26;94512.41;;;0.95;100.00
63097;BME280;49185;42.320;23.198;2023-12-07T04:59:52;94512.47;;;1.15;100.00
63097;BME280;49185;42.320;23.198;2023-12-07T05:02:17;94519.34;;;1.16;100.00
63097;BME280;49185;42.320;23.198;2023-12-07T05:04:43;94518.09;;;1.05;100.00
63097;BME280;49185;42.320;23.198;2023-12-07T05:07:09;94517.06;;;1.00;100.00
63097;BME280;49185;42.320;23.198;2023-12-07T05:09:34;94526.53;;;1.01;100.00
63097;BME280;49185;42.320;23.198;2023-12-07T05:12:00;94525.72;;;1.00;100.00
63097;BME280;49185;42.320;23.198;2023-12-07T05:14:25;94526.78;;;1.12;100.00
63097;BME280;49185;42.320;23.198;2023-12-07T05:16:51;94531.25;;;1.19;100.00
63097;BME280;49185;42.320;23.198;2023-12-07T05:19:16;94524.66;;;1.36;100.00
63097;BME280;49185;42.320;23.198;2023-12-07T05:21:41;94529.53;;;1.39;100.00
63097;BME280;49185;42.320;23.198;2023-12-07T05:24:07;94531.53;;;1.37;100.00
63097;BME280;49185;42.320;23.198;2023-12-07T05:26:32;94536.16;;;1.35;100.00
63097;BME280;49185;42.320;23.198;2023-12-07T05:28:58;94540.00;;;1.39;100.00
63097;BME280;49185;42.320;23.198;2023-12-07T05:31:23;94544.44;;;1.39;100.00
63097;BME280;49185;42.320;23.198;2023-12-07T05:33:48;94550.09;;;1.42;100.00
63097;BME280;49185;42.320;23.198;2023-12-07T05:36:14;94548.09;;;1.44;100.00
63097;BME280;49185;42.320;23.198;2023-12-07T05:38:39;94545.09;;;1.47;100.00
63097;BME280;49185;42.320;23.198;2023-12-07T05:41:04;94553.75;;;1.48;100.00
63097;BME280;49185;42.320;23.198;2023-12-07T05:43:30;94545.31;;;1.52;100.00
63097;BME280;49185;42.320;23.198;2023-12-07T05:45:56;94555.59;;;1.61;100.00
63097;BME280;49185;42.320;23.198;2023-12-07T05:48:21;94550.19;;;1.69;100.00
63097;BME280;49185;42.320;23.198;2023-12-07T05:50:46;94550.00;;;1.77;100.00
63097;BME280;49185;42.320;23.198;2023-12-07T05:53:12;94545.81;;;1.89;100.00
63097;BME280;49185;42.320;23.198;2023-12-07T05:55:38;94542.75;;;1.93;100.00
63097;BME280;49185;42.320;23.198;2023-12-07T05:58:04;94540.56;;;1.89;100.00
63097;BME280;49185;42.320;23.198;2023-12-07T06:00:29;94541.78;;;1.94;100.00
63097;BME280;49185;42.320;23.198;2023-12-07T06:02:55;94544.59;;;1.99;100.00
63097;BME280;49185;42.320;23.198;2023-12-07T06:05:20;94544.00;;;2.03;100.00
63097;BME280;49185;42.320;23.198;2023-12-07T06:07:45;94551.88;;;2.10;100.00
63097;BME280;49185;42.320;23.198;2023-12-07T06:10:11;94546.44;;;2.18;100.00
63097;BME280;49185;42.320;23.198;2023-12-07T06:12:36;94544.63;;;2.19;100.00
63097;BME280;49185;42.320;23.198;2023-12-07T06:15:02;94550.88;;;2.24;100.00
63097;BME280;49185;42.320;23.198;2023-12-07T06:17:27;94555.53;;;2.29;100.00
63097;BME280;49185;42.320;23.198;2023-12-07T06:19:52;94554.91;;;2.34;100.00
63097;BME280;49185;42.320;23.198;2023-12-07T06:22:18;94551.28;;;2.41;100.00
63097;BME280;49185;42.320;23.198;2023-12-07T06:24:43;94551.50;;;2.46;100.00
63097;BME280;49185;42.320;23.198;2023-12-07T06:27:09;94545.22;;;2.54;100.00
63097;BME280;49185;42.320;23.198;2023-12-07T06:29:34;94554.72;;;2.55;100.00
63097;BME280;49185;42.320;23.198;2023-12-07T06:31:59;94566.63;;;2.58;100.00
63097;BME280;49185;42.320;23.198;2023-12-07T06:34:25;94557.97;;;2.57;100.00
63097;BME280;49185;42.320;23.198;2023-12-07T06:36:50;94556.34;;;2.63;100.00
63097;BME280;49185;42.320;23.198;2023-12-07T06:39:15;94554.13;;;2.66;100.00
63097;BME280;49185;42.320;23.198;2023-12-07T06:41:41;94554.91;;;2.74;100.00
63097;BME280;49185;42.320;23.198;2023-12-07T06:44:06;94554.72;;;2.82;100.00
63097;BME280;49185;42.320;23.198;2023-12-07T06:46:32;94552.88;;;2.89;100.00
63097;BME280;49185;42.320;23.198;2023-12-07T06:48:57;94550.00;;;2.97;100.00
63097;BME280;49185;42.320;23.198;2023-12-07T06:51:23;94559.72;;;3.03;100.00
63097;BME280;49185;42.320;23.198;2023-12-07T06:53:48;94557.03;;;3.17;100.00
63097;BME280;49185;42.320;23.198;2023-12-07T06:56:14;94558.00;;;3.29;100.00
63097;BME280;49185;42.320;23.198;2023-12-07T06:58:39;94568.94;;;3.33;100.00
63097;BME280;49185;42.320;23.198;2023-12-07T07:01:04;94563.44;;;3.41;100.00
63097;BME280;49185;42.320;23.198;2023-12-07T07:03:30;94568.91;;;3.46;100.00
63097;BME280;49185;42.320;23.198;2023-12-07T07:05:55;94571.91;;;3.50;100.00
63097;BME280;49185;42.320;23.198;2023-12-07T07:08:20;94570.47;;;3.54;100.00
63097;BME280;49185;42.320;23.198;2023-12-07T07:10:46;94578.72;;;3.64;100.00
63097;BME280;49185;42.320;23.198;2023-12-07T07:13:11;94578.31;;;3.67;100.00
63097;BME280;49185;42.320;23.198;2023-12-07T07:15:37;94585.53;;;3.78;100.00
63097;BME280;49185;42.320;23.198;2023-12-07T07:18:02;94582.72;;;3.73;100.00
63097;BME280;49185;42.320;23.198;2023-12-07T07:20:27;94582.72;;;3.80;100.00
63097;BME280;49185;42.320;23.198;2023-12-07T07:22:53;94586.31;;;3.86;100.00
63097;BME280;49185;42.320;23.198;2023-12-07T07:25:18;94586.31;;;3.86;100.00
63097;BME280;49185;42.320;23.198;2023-12-07T07:27:45;94582.47;;;3.88;100.00
63097;BME280;49185;42.320;23.198;2023-12-07T07:30:11;94581.22;;;4.29;100.00
63097;BME280;49185;42.320;23.198;2023-12-07T07:32:36;94589.72;;;4.31;100.00
63097;BME280;49185;42.320;23.198;2023-12-07T07:35:02;94588.91;;;4.31;100.00
63097;BME280;49185;42.320;23.198;2023-12-07T07:37:27;94588.00;;;4.44;100.00
63097;BME280;49185;42.320;23.198;2023-12-07T07:39:53;94589.63;;;4.45;100.00
63097;BME280;49185;42.320;23.198;2023-12-07T07:42:18;94588.94;;;4.56;100.00
63097;BME280;49185;42.320;23.198;2023-12-07T07:44:44;94596.59;;;4.64;100.00
63097;BME280;49185;42.320;23.198;2023-12-07T07:47:09;94594.34;;;4.68;100.00
63097;BME280;49185;42.320;23.198;2023-12-07T07:49:34;94601.94;;;4.76;100.00
63097;BME280;49185;42.320;23.198;2023-12-07T07:52:00;94601.91;;;4.83;100.00
63097;BME280;49185;42.320;23.198;2023-12-07T07:54:26;94606.44;;;4.75;100.00
63097;BME280;49185;42.320;23.198;2023-12-07T07:56:51;94610.94;;;4.68;100.00
63097;BME280;49185;42.320;23.198;2023-12-07T07:59:17;94602.34;;;4.48;100.00
63097;BME280;49185;42.320;23.198;2023-12-07T08:01:42;94605.63;;;4.50;100.00
63097;BME280;49185;42.320;23.198;2023-12-07T08:04:07;94607.22;;;4.51;100.00
63097;BME280;49185;42.320;23.198;2023-12-07T08:06:33;94611.03;;;4.55;100.00
63097;BME280;49185;42.320;23.198;2023-12-07T08:08:58;94616.53;;;4.53;100.00
63097;BME280;49185;42.320;23.198;2023-12-07T08:11:24;94615.91;;;4.51;100.00
63097;BME280;49185;42.320;23.198;2023-12-07T08:13:49;94619.53;;;4.57;100.00
63097;BME280;49185;42.320;23.198;2023-12-07T08:16:14;94618.66;;;4.38;100.00
63097;BME280;49185;42.320;23.198;2023-12-07T08:18:40;94624.47;;;4.47;100.00
63097;BME280;49185;42.320;23.198;2023-12-07T08:21:05;94621.56;;;4.55;100.00
63097;BME280;49185;42.320;23.198;2023-12-07T08:23:31;94623.19;;;4.56;100.00
63097;BME280;49185;42.320;23.198;2023-12-07T08:25:56;94624.03;;;4.82;100.00
63097;BME280;49185;42.320;23.198;2023-12-07T08:28:21;94624.53;;;4.65;100.00
63097;BME280;49185;42.320;23.198;2023-12-07T08:30:48;94633.31;;;4.84;100.00
63097;BME280;49185;42.320;23.198;2023-12-07T08:33:13;94630.25;;;4.87;100.00
63097;BME280;49185;42.320;23.198;2023-12-07T08:35:39;94631.19;;;5.00;100.00
63097;BME280;49185;42.320;23.198;2023-12-07T08:38:04;94626.22;;;5.10;100.00
63097;BME280;49185;42.320;23.198;2023-12-07T08:40:30;94618.38;;;5.03;100.00
63097;BME280;49185;42.320;23.198;2023-12-07T08:42:55;94633.31;;;5.09;100.00
63097;BME280;49185;42.320;23.198;2023-12-07T08:45:20;94632.19;;;4.99;100.00
63097;BME280;49185;42.320;23.198;2023-12-07T08:47:46;94631.22;;;4.93;100.00
63097;BME280;49185;42.320;23.198;2023-12-07T08:50:11;94634.88;;;4.92;100.00
63097;BME280;49185;42.320;23.198;2023-12-07T08:52:36;94636.50;;;4.93;100.00
63097;BME280;49185;42.320;23.198;2023-12-07T08:55:02;94634.06;;;4.91;100.00
63097;BME280;49185;42.320;23.198;2023-12-07T08:57:27;94630.97;;;5.01;100.00
63097;BME280;49185;42.320;23.198;2023-12-07T08:59:53;94634.22;;;4.97;100.00
63097;BME280;49185;42.320;23.198;2023-12-07T09:02:18;94629.66;;;5.10;100.00
63097;BME280;49185;42.320;23.198;2023-12-07T09:04:43;94628.41;;;5.13;100.00
63097;BME280;49185;42.320;23.198;2023-12-07T09:07:09;94618.19;;;5.23;100.00
63097;BME280;49185;42.320;23.198;2023-12-07T09:09:34;94626.09;;;5.23;100.00
63097;BME280;49185;42.320;23.198;2023-12-07T09:12:00;94621.97;;;5.27;100.00
63097;BME280;49185;42.320;23.198;2023-12-07T09:14:26;94621.44;;;5.19;100.00
63097;BME280;49185;42.320;23.198;2023-12-07T09:16:51;94622.22;;;5.26;100.00
63097;BME280;49185;42.320;23.198;2023-12-07T09:19:16;94618.66;;;5.39;100.00
63097;BME280;49185;42.320;23.198;2023-12-07T09:21:42;94630.94;;;5.26;100.00
63097;BME280;49185;42.320;23.198;2023-12-07T09:24:07;94625.34;;;5.35;100.00
63097;BME280;49185;42.320;23.198;2023-12-07T09:26:33;94624.34;;;5.17;100.00
63097;BME280;49185;42.320;23.198;2023-12-07T09:28:58;94620.22;;;5.21;100.00
63097;BME280;49185;42.320;23.198;2023-12-07T09:31:24;94624.34;;;5.17;100.00
63097;BME280;49185;42.320;23.198;2023-12-07T09:33:49;94613.38;;;5.39;100.00
63097;BME280;49185;42.320;23.198;2023-12-07T09:36:18;94622.50;;;5.36;100.00
63097;BME280;49185;42.320;23.198;2023-12-07T09:38:43;94606.00;;;5.22;100.00
63097;BME280;49185;42.320;23.198;2023-12-07T09:41:09;94611.09;;;5.42;100.00
63097;BME280;49185;42.320;23.198;2023-12-07T09:43:34;94606.41;;;5.44;100.00
63097;BME280;49185;42.320;23.198;2023-12-07T09:46:00;94601.88;;;5.33;100.00
63097;BME280;49185;42.320;23.198;2023-12-07T09:48:25;94603.75;;;5.26;100.00
63097;BME280;49185;42.320;23.198;2023-12-07T09:50:51;94597.06;;;5.42;100.00
63097;BME280;49185;42.320;23.198;2023-12-07T09:53:17;94602.06;;;5.50;100.00
63097;BME280;49185;42.320;23.198;2023-12-07T09:55:42;94603.13;;;5.49;100.00
63097;BME280;49185;42.320;23.198;2023-12-07T09:58:08;94593.72;;;5.53;100.00
63097;BME280;49185;42.320;23.198;2023-12-07T10:00:33;94597.59;;;5.50;100.00
63097;BME280;49185;42.320;23.198;2023-12-07T10:02:59;94598.28;;;5.46;100.00
63097;BME280;49185;42.320;23.198;2023-12-07T10:05:24;94587.72;;;5.46;100.00
63097;BME280;49185;42.320;23.198;2023-12-07T10:07:50;94589.31;;;5.28;100.00
63097;BME280;49185;42.320;23.198;2023-12-07T10:10:17;94587.69;;;5.27;100.00
63097;BME280;49185;42.320;23.198;2023-12-07T10:12:56;94589.47;;;5.33;100.00
63097;BME280;49185;42.320;23.198;2023-12-07T10:15:25;94585.56;;;5.36;100.00
63097;BME280;49185;42.320;23.198;2023-12-07T10:17:51;94579.41;;;5.24;100.00
63097;BME280;49185;42.320;23.198;2023-12-07T10:20:21;94584.53;;;5.19;100.00
63097;BME280;49185;42.320;23.198;2023-12-07T10:22:47;94577.44;;;5.19;100.00
63097;BME280;49185;42.320;23.198;2023-12-07T10:25:13;94571.97;;;5.21;100.00
63097;BME280;49185;42.320;23.198;2023-12-07T10:27:41;94574.28;;;5.10;100.00
63097;BME280;49185;42.320;23.198;2023-12-07T10:30:09;94574.66;;;5.14;100.00
63097;BME280;49185;42.320;23.198;2023-12-07T10:32:38;94567.59;;;5.08;100.00
63097;BME280;49185;42.320;23.198;2023-12-07T10:35:06;94565.28;;;5.00;100.00
63097;BME280;49185;42.320;23.198;2023-12-07T10:37:32;94562.91;;;4.91;100.00
63097;BME280;49185;42.320;23.198;2023-12-07T10:39:58;94563.69;;;4.92;100.00
63097;BME280;49185;42.320;23.198;2023-12-07T10:42:24;94556.69;;;5.04;100.00
63097;BME280;49185;42.320;23.198;2023-12-07T10:44:50;94558.47;;;5.10;100.00
63097;BME280;49185;42.320;23.198;2023-12-07T10:47:19;94563.53;;;5.12;100.00
63097;BME280;49185;42.320;23.198;2023-12-07T10:49:47;94550.84;;;5.02;100.00
63097;BME280;49185;42.320;23.198;2023-12-07T10:52:21;94551.50;;;5.16;100.00
63097;BME280;49185;42.320;23.198;2023-12-07T10:55:00;94555.03;;;5.28;100.00
63097;BME280;49185;42.320;23.198;2023-12-07T10:57:28;94559.13;;;5.24;100.00
63097;BME280;49185;42.320;23.198;2023-12-07T10:59:54;94557.50;;;5.23;100.00
63097;BME280;49185;42.320;23.198;2023-12-07T11:02:22;94555.31;;;5.20;100.00
63097;BME280;49185;42.320;23.198;2023-12-07T11:04:48;94557.16;;;5.20;100.00
63097;BME280;49185;42.320;23.198;2023-12-07T11:07:19;94554.88;;;5.23;100.00
63097;BME280;49185;42.320;23.198;2023-12-07T11:09:48;94555.03;;;5.28;100.00
63097;BME280;49185;42.320;23.198;2023-12-07T11:12:28;94555.19;;;5.33;100.00
63097;BME280;49185;42.320;23.198;2023-12-07T11:14:56;94548.28;;;5.32;100.00
63097;BME280;49185;42.320;23.198;2023-12-07T11:17:21;94552.88;;;5.19;100.00
63097;BME280;49185;42.320;23.198;2023-12-07T11:19:47;94546.88;;;5.11;100.00
63097;BME280;49185;42.320;23.198;2023-12-07T11:22:13;94549.44;;;5.00;100.00
63097;BME280;49185;42.320;23.198;2023-12-07T11:24:55;94545.47;;;4.90;100.00
63097;BME280;49185;42.320;23.198;2023-12-07T11:27:21;94544.88;;;4.88;100.00
63097;BME280;49185;42.320;23.198;2023-12-07T11:29:47;94539.44;;;4.83;100.00
63097;BME280;49185;42.320;23.198;2023-12-07T11:32:12;94533.75;;;4.86;100.00
63097;BME280;49185;42.320;23.198;2023-12-07T11:34:42;94541.94;;;4.78;100.00
63097;BME280;49185;42.320;23.198;2023-12-07T11:37:09;94534.84;;;4.79;100.00
63097;BME280;49185;42.320;23.198;2023-12-07T11:39:44;94534.25;;;4.77;100.00
63097;BME280;49185;42.320;23.198;2023-12-07T11:42:12;94534.78;;;4.60;100.00
63097;BME280;49185;42.320;23.198;2023-12-07T11:44:39;94536.50;;;4.48;100.00
63097;BME280;49185;42.320;23.198;2023-12-07T11:47:05;94525.13;;;4.29;100.00
63097;BME280;49185;42.320;23.198;2023-12-07T11:49:32;94527.00;;;4.22;100.00
63097;BME280;49185;42.320;23.198;2023-12-07T11:52:01;94527.03;;;4.15;100.00
63097;BME280;49185;42.320;23.198;2023-12-07T11:54:37;94528.13;;;4.07;100.00
63097;BME280;49185;42.320;23.198;2023-12-07T11:57:03;94532.94;;;4.10;100.00
63097;BME280;49185;42.320;23.198;2023-12-07T11:59:29;94529.34;;;4.05;100.00
63097;BME280;49185;42.320;23.198;2023-12-07T12:01:54;94529.53;;;4.03;100.00
63097;BME280;49185;42.320;23.198;2023-12-07T12:04:21;94533.22;;;4.02;100.00
63097;BME280;49185;42.320;23.198;2023-12-07T12:06:46;94527.94;;;4.02;100.00
63097;BME280;49185;42.320;23.198;2023-12-07T12:09:13;94527.56;;;3.98;100.00
63097;BME280;49185;42.320;23.198;2023-12-07T12:11:46;94532.81;;;3.98;100.00
63097;BME280;49185;42.320;23.198;2023-12-07T12:14:21;94531.59;;;4.01;100.00
63097;BME280;49185;42.320;23.198;2023-12-07T12:16:46;94529.53;;;4.03;100.00
63097;BME280;49185;42.320;23.198;2023-12-07T12:19:12;94533.59;;;4.06;100.00
63097;BME280;49185;42.320;23.198;2023-12-07T12:21:38;94534.00;;;4.03;100.00
63097;BME280;49185;42.320;23.198;2023-12-07T12:24:06;94532.19;;;4.03;100.00
63097;BME280;49185;42.320;23.198;2023-12-07T12:26:36;94526.75;;;3.98;100.00
63097;BME280;49185;42.320;23.198;2023-12-07T12:29:02;94533.25;;;3.95;100.00
63097;BME280;49185;42.320;23.198;2023-12-07T12:31:28;94542.03;;;3.83;100.00
63097;BME280;49185;42.320;23.198;2023-12-07T12:33:54;94542.47;;;3.73;100.00
63097;BME280;49185;42.320;23.198;2023-12-07T12:36:20;94546.34;;;3.70;100.00
63097;BME280;49185;42.320;23.198;2023-12-07T12:38:47;94546.97;;;3.66;100.00
63097;BME280;49185;42.320;23.198;2023-12-07T12:41:18;94550.38;;;3.66;100.00
63097;BME280;49185;42.320;23.198;2023-12-07T12:43:44;94556.25;;;3.68;100.00
63097;BME280;49185;42.320;23.198;2023-12-07T12:46:09;94562.34;;;3.62;100.00